Terminal Aerodrome Forecast
Issued by NWS

Home | Current Version | Previous Version | Text Only | Print | Product List | Glossary On
Versions: 1 2 3 4 5 6 7 8 9 10 11 12 13 14 15 16 17 18 19 20 21 22
000
FTUS45 KABQ 182300
TAFROW
TAF
KROW 182325Z 1900/1924 18010KT P6SM VCSH BKN100
     FM190500 09005KT P6SM -SHRA SCT015 OVC040
     FM190800 09005KT P6SM -SHRA SCT007 OVC025
     FM191300 36010KT P6SM VCFG SCT002 OVC015
     FM191800 30005KT P6SM VCSH SCT015 OVC040=

USA.gov is the U.S. government's official web portal to all federal, state and local government web resources and services.